Weather at Fort Lauderdale Hollywood International Airport

Public forecast

Using degrees Fahrenheit for public forecast. Weather courtesy of forecast.io.

Current aviation weather report (METAR) for Fort Lauderdale Hollywood International Airport

Retrieved 2022/05/19 07:53 UTC (1 hour ago):

KFLL 190753Z 00000KT 10SM CLR 26/23 A2998 RMK AO2 SLP153 T02610233

Aviation forecast (TAF) for Fort Lauderdale Hollywood International Airport

Retrieved 2022/05/19 06:39 UTC (2 hours ago):

TAF KFLL 190536Z 1906/2012 15005KT P6SM FEW025 FM191800 12011KT P6SM FEW050 SCT250 FM200100 16010KT P6SM FEW025 SCT250 FM200700 18007KT P6SM VCTS SCT015CB BKN045